createdAt,value
2017-08-01T00:00:13.966Z,81.0
2017-08-01T00:01:15.393Z,81.3
2017-08-01T00:02:16.801Z,81.4
2017-08-01T00:03:18.210Z,81.2
2017-08-01T00:04:19.607Z,82.2
2017-08-01T00:05:21.046Z,81.4
2017-08-01T00:06:22.458Z,81.7
2017-08-01T00:07:23.896Z,82.0
2017-08-01T00:08:25.332Z,82.2
2017-08-01T00:09:26.766Z,81.8
2017-08-01T00:10:28.163Z,82.4
2017-08-01T00:11:29.572Z,83.9
2017-08-01T00:12:30.968Z,84.3
2017-08-01T00:13:32.388Z,84.7
2017-08-01T00:14:33.788Z,84.8
2017-08-01T00:15:35.210Z,85.3
2017-08-01T00:16:36.601Z,85.5
2017-08-01T00:17:38.005Z,86.2
2017-08-01T00:18:39.427Z,85.2
2017-08-01T00:19:40.846Z,84.5
2017-08-01T00:20:42.233Z,84.6
2017-08-01T00:21:43.630Z,84.6
2017-08-01T00:22:45.036Z,84.0
2017-08-01T00:23:46.447Z,84.5
2017-08-01T00:24:47.861Z,85.1
2017-08-01T00:25:50.256Z,85.0
2017-08-01T00:26:51.654Z,85.6
2017-08-01T00:27:53.050Z,85.4
2017-08-01T00:28:54.474Z,85.5
2017-08-01T00:29:55.862Z,85.3
2017-08-01T00:30:57.273Z,85.0
2017-08-01T00:31:58.646Z,85.4
2017-08-01T00:33:00.024Z,85.1
2017-08-01T00:34:01.410Z,85.1
2017-08-01T00:35:02.788Z,86.2
2017-08-01T00:36:04.202Z,85.4
2017-08-01T00:37:05.589Z,85.2
2017-08-01T00:38:06.973Z,85.6
2017-08-01T00:39:08.350Z,85.4
2017-08-01T00:40:09.745Z,84.7
2017-08-01T00:41:11.122Z,85.4
2017-08-01T00:42:12.499Z,85.4
2017-08-01T00:43:13.882Z,86.0
2017-08-01T00:44:15.283Z,87.0
2017-08-01T00:45:16.658Z,86.5
2017-08-01T00:46:18.050Z,87.9
2017-08-01T00:47:19.429Z,87.1
2017-08-01T00:48:20.813Z,86.4
2017-08-01T00:49:22.200Z,87.9
2017-08-01T00:50:23.572Z,87.5
2017-08-01T00:51:24.956Z,87.6
2017-08-01T00:52:26.346Z,88.6
2017-08-01T00:53:27.773Z,88.2
2017-08-01T00:54:29.161Z,88.3
2017-08-01T00:55:30.533Z,87.4
2017-08-01T00:56:31.926Z,87.7
2017-08-01T00:57:33.317Z,88.3
2017-08-01T00:58:35.830Z,89.0
2017-08-01T00:59:37.252Z,89.0
2017-08-01T01:00:38.766Z,89.2
2017-08-01T01:01:40.155Z,88.6
2017-08-01T01:02:41.653Z,88.2
2017-08-01T01:03:43.102Z,87.6
2017-08-01T01:04:44.599Z,88.6
2017-08-01T01:05:45.987Z,88.5
2017-08-01T01:06:47.521Z,88.3
2017-08-01T01:07:48.931Z,89.0
2017-08-01T01:08:50.382Z,89.6
2017-08-01T01:09:51.769Z,89.1
2017-08-01T01:10:53.152Z,89.0
2017-08-01T01:11:54.566Z,89.8
2017-08-01T01:12:56.044Z,89.4
2017-08-01T01:13:57.422Z,89.8
2017-08-01T01:14:58.921Z,89.6
2017-08-01T01:16:00.311Z,90.0
2017-08-01T01:17:01.693Z,90.0
2017-08-01T01:18:03.067Z,90.2
2017-08-01T01:19:04.469Z,90.1
2017-08-01T01:20:05.843Z,90.5
2017-08-01T01:21:07.238Z,90.5
2017-08-01T01:22:08.620Z,90.2
2017-08-01T01:23:10.008Z,90.2
2017-08-01T01:24:11.383Z,90.3
2017-08-01T01:25:12.771Z,90.7
2017-08-01T01:26:14.157Z,89.8
2017-08-01T01:27:15.546Z,89.8
2017-08-01T01:28:16.949Z,89.7
2017-08-01T01:29:18.333Z,90.2
2017-08-01T01:30:19.738Z,89.2
2017-08-01T01:31:21.139Z,89.5
2017-08-01T01:32:22.524Z,89.7
2017-08-01T01:33:23.924Z,89.6
2017-08-01T01:34:25.304Z,89.6
2017-08-01T01:35:26.698Z,88.4
2017-08-01T01:36:28.074Z,87.5
2017-08-01T01:37:29.469Z,87.5
2017-08-01T01:38:30.842Z,87.1
2017-08-01T01:39:32.259Z,87.0
2017-08-01T01:40:33.630Z,86.7
2017-08-01T01:41:35.033Z,86.3
2017-08-01T01:42:36.401Z,86.3
2017-08-01T01:43:37.791Z,86.4
2017-08-01T01:44:39.193Z,86.1
2017-08-01T01:45:40.592Z,85.6
2017-08-01T01:46:41.964Z,85.5
2017-08-01T01:47:43.348Z,85.3
2017-08-01T01:48:44.738Z,85.0
2017-08-01T01:49:46.121Z,84.5
2017-08-01T01:50:47.526Z,84.9
2017-08-01T01:51:48.898Z,84.2
2017-08-01T01:52:50.275Z,84.4
2017-08-01T01:53:51.677Z,84.0
2017-08-01T01:54:53.058Z,83.2
2017-08-01T01:55:54.459Z,83.0
2017-08-01T01:56:55.839Z,83.5
2017-08-01T01:57:57.221Z,82.4
2017-08-01T01:58:58.598Z,82.5
2017-08-01T01:59:59.987Z,82.5
2017-08-01T02:01:01.417Z,82.0
2017-08-01T02:02:02.812Z,81.7
2017-08-01T02:03:04.207Z,81.1
2017-08-01T02:04:05.591Z,81.5
2017-08-01T02:05:06.978Z,81.3
2017-08-01T02:06:08.371Z,80.8
2017-08-01T02:07:09.764Z,80.7
2017-08-01T02:08:11.153Z,81.1
2017-08-01T02:09:12.535Z,81.2
2017-08-01T02:10:13.920Z,81.1
2017-08-01T02:11:15.313Z,80.9
2017-08-01T02:12:16.703Z,80.8
2017-08-01T02:13:18.082Z,81.1
2017-08-01T02:14:19.473Z,81.3
2017-08-01T02:15:20.853Z,81.2
2017-08-01T02:16:22.247Z,81.2
2017-08-01T02:17:23.623Z,81.2
2017-08-01T02:18:25.009Z,81.2
2017-08-01T02:19:26.389Z,81.3
2017-08-01T02:20:27.774Z,81.5
2017-08-01T02:21:29.154Z,81.2
2017-08-01T02:22:30.538Z,81.2
2017-08-01T02:23:31.925Z,81.2
2017-08-01T02:24:33.314Z,81.2
2017-08-01T02:25:34.706Z,81.4
2017-08-01T02:26:36.105Z,81.3
2017-08-01T02:27:37.499Z,81.3
2017-08-01T02:28:39.897Z,81.3
2017-08-01T02:29:41.281Z,81.8
2017-08-01T02:30:42.660Z,81.0
2017-08-01T02:31:44.041Z,79.8
2017-08-01T02:32:45.429Z,79.0
2017-08-01T02:33:46.824Z,78.6
2017-08-01T02:34:48.201Z,78.1
2017-08-01T02:35:49.587Z,79.2
2017-08-01T02:36:50.972Z,78.5
2017-08-01T02:37:52.357Z,78.1
2017-08-01T02:38:53.746Z,76.4
2017-08-01T02:39:55.154Z,76.3
2017-08-01T02:40:56.542Z,75.7
2017-08-01T02:41:57.921Z,75.6
2017-08-01T02:42:59.297Z,75.0
2017-08-01T02:44:00.673Z,73.3
2017-08-01T02:45:02.064Z,71.9
2017-08-01T02:46:03.445Z,71.6
2017-08-01T02:47:04.833Z,73.3
2017-08-01T02:48:06.222Z,73.5
2017-08-01T02:49:07.610Z,72.4
2017-08-01T02:50:08.985Z,72.8
2017-08-01T02:51:10.368Z,73.2
2017-08-01T02:52:11.756Z,73.4
2017-08-01T02:53:13.132Z,71.6
2017-08-01T02:54:14.519Z,71.4
2017-08-01T02:55:15.909Z,72.0
2017-08-01T02:56:17.295Z,71.2
2017-08-01T02:57:18.670Z,70.4
2017-08-01T02:58:20.051Z,69.7
2017-08-01T02:59:21.460Z,69.3
2017-08-01T03:00:22.821Z,69.3
2017-08-01T03:01:24.209Z,69.2
2017-08-01T03:02:25.602Z,69.5
2017-08-01T03:03:26.992Z,69.5
2017-08-01T03:04:28.370Z,69.1
2017-08-01T03:05:29.753Z,67.5
2017-08-01T03:06:31.130Z,67.9
2017-08-01T03:07:32.519Z,68.7
2017-08-01T03:08:33.900Z,67.6
2017-08-01T03:09:35.314Z,68.4
2017-08-01T03:10:36.718Z,69.3
2017-08-01T03:11:38.108Z,69.6
2017-08-01T03:12:39.514Z,69.5
2017-08-01T03:13:40.901Z,69.8
2017-08-01T03:14:42.281Z,69.5
2017-08-01T03:15:43.673Z,69.9
2017-08-01T03:16:45.058Z,69.5
2017-08-01T03:17:46.449Z,69.5
2017-08-01T03:18:48.838Z,68.9
2017-08-01T03:19:50.226Z,70.4
2017-08-01T03:20:51.612Z,70.7
2017-08-01T03:21:53.004Z,70.6
2017-08-01T03:22:54.390Z,70.5
2017-08-01T03:23:55.779Z,70.4
2017-08-01T03:24:57.178Z,70.6
2017-08-01T03:25:58.576Z,70.9
2017-08-01T03:26:59.964Z,70.5
2017-08-01T03:28:01.349Z,70.9
2017-08-01T03:29:02.738Z,72.5
2017-08-01T03:30:04.126Z,72.7
2017-08-01T03:31:05.519Z,72.4
2017-08-01T03:32:06.903Z,72.5
2017-08-01T03:33:08.286Z,73.1
2017-08-01T03:34:09.677Z,73.1
2017-08-01T03:35:11.071Z,73.8
2017-08-01T03:36:12.455Z,74.0
2017-08-01T03:37:13.843Z,75.1
2017-08-01T03:38:15.226Z,74.2
2017-08-01T03:39:16.623Z,74.0
2017-08-01T03:40:18.012Z,74.3
2017-08-01T03:41:19.410Z,74.4
2017-08-01T03:42:20.791Z,74.8
2017-08-01T03:43:22.177Z,75.4
2017-08-01T03:44:23.575Z,76.4
2017-08-01T03:45:24.970Z,76.6
2017-08-01T03:46:26.361Z,75.7
2017-08-01T03:47:27.770Z,75.4
2017-08-01T03:48:29.166Z,76.1
2017-08-01T03:49:30.556Z,76.3
2017-08-01T03:50:31.940Z,76.3
2017-08-01T03:51:33.345Z,76.4
2017-08-01T03:52:34.737Z,76.4
2017-08-01T03:53:36.156Z,76.5
2017-08-01T03:54:37.549Z,76.8
2017-08-01T03:55:38.945Z,76.7
2017-08-01T03:56:40.327Z,77.1
2017-08-01T03:57:41.735Z,76.9
2017-08-01T03:58:43.128Z,77.7
2017-08-01T03:59:44.513Z,78.1
2017-08-01T04:00:45.895Z,79.2
2017-08-01T04:01:47.286Z,78.1
2017-08-01T04:02:48.673Z,78.8
2017-08-01T04:03:50.075Z,78.9
2017-08-01T04:04:51.466Z,78.8
2017-08-01T04:05:52.870Z,79.0
2017-08-01T04:06:54.244Z,79.9
2017-08-01T04:07:55.636Z,79.7
2017-08-01T04:08:57.076Z,80.4
2017-08-01T04:09:58.491Z,81.5
2017-08-01T04:10:59.874Z,81.3
2017-08-01T04:12:01.264Z,81.0
2017-08-01T04:13:02.674Z,81.5
2017-08-01T04:14:04.073Z,81.3
2017-08-01T04:15:05.465Z,81.1
2017-08-01T04:16:06.862Z,80.5
2017-08-01T04:17:08.259Z,81.0
2017-08-01T04:18:09.720Z,81.4
2017-08-01T04:19:11.117Z,82.3
2017-08-01T04:20:12.572Z,82.3
2017-08-01T04:21:13.967Z,82.1
2017-08-01T04:22:15.370Z,82.6
2017-08-01T04:23:16.774Z,83.2
2017-08-01T04:24:18.186Z,82.1
2017-08-01T04:25:19.568Z,82.0
2017-08-01T04:26:20.964Z,81.8
2017-08-01T04:27:22.340Z,81.5
2017-08-01T04:28:23.749Z,81.6
2017-08-01T04:29:25.162Z,81.1
2017-08-01T04:30:26.586Z,81.2
2017-08-01T04:31:27.972Z,81.6
2017-08-01T04:32:29.365Z,82.0
2017-08-01T04:33:30.744Z,82.9
2017-08-01T04:34:32.146Z,83.1
2017-08-01T04:35:33.540Z,82.7
2017-08-01T04:36:34.947Z,82.1
2017-08-01T04:37:36.335Z,82.6
2017-08-01T04:38:37.725Z,82.3
2017-08-01T04:39:39.112Z,82.4
2017-08-01T04:40:40.527Z,82.8
2017-08-01T04:41:41.912Z,83.5
2017-08-01T04:42:43.316Z,84.2
2017-08-01T04:43:44.699Z,83.6
2017-08-01T04:44:46.088Z,83.9
2017-08-01T04:45:47.475Z,83.7
2017-08-01T04:46:48.866Z,83.3
2017-08-01T04:47:50.318Z,83.0
2017-08-01T04:48:51.715Z,82.9
2017-08-01T04:49:53.106Z,82.8
2017-08-01T04:50:54.499Z,83.0
2017-08-01T04:51:55.881Z,84.2
2017-08-01T04:52:57.274Z,83.9
2017-08-01T04:53:58.662Z,84.1
2017-08-01T04:55:00.053Z,84.2
2017-08-01T04:56:01.436Z,79.3
2017-08-01T04:57:02.832Z,75.6
2017-08-01T04:58:04.226Z,74.1
2017-08-01T04:59:05.618Z,73.8
2017-08-01T05:00:07.017Z,73.0
2017-08-01T05:01:08.403Z,72.5
2017-08-01T05:02:09.790Z,71.8
2017-08-01T05:03:11.198Z,71.1
2017-08-01T05:04:12.584Z,71.1
2017-08-01T05:05:13.994Z,70.8
2017-08-01T05:06:15.388Z,69.7
2017-08-01T05:07:16.774Z,70.8
2017-08-01T05:08:18.162Z,70.8
2017-08-01T05:09:19.560Z,70.8
2017-08-01T05:10:20.946Z,69.4
2017-08-01T05:11:22.338Z,69.7
2017-08-01T05:12:23.828Z,69.0
2017-08-01T05:13:25.345Z,69.0
2017-08-01T05:14:26.865Z,69.1
2017-08-01T05:15:28.360Z,69.2
2017-08-01T05:16:29.871Z,69.1
2017-08-01T05:17:31.353Z,69.5
2017-08-01T05:18:32.938Z,70.3
2017-08-01T05:19:34.419Z,70.2
2017-08-01T05:20:35.970Z,70.7
2017-08-01T05:21:37.594Z,70.6
2017-08-01T05:22:39.055Z,69.9
2017-08-01T05:23:40.588Z,69.9
2017-08-01T05:24:42.129Z,70.1
2017-08-01T05:25:43.637Z,68.9
2017-08-01T05:26:45.133Z,69.7
2017-08-01T05:27:46.646Z,69.5
2017-08-01T05:28:48.207Z,69.9
2017-08-01T05:29:49.747Z,69.6
2017-08-01T05:30:51.218Z,69.7
2017-08-01T05:31:52.725Z,70.7
2017-08-01T05:32:54.229Z,70.5
2017-08-01T05:33:55.698Z,70.5
2017-08-01T05:34:57.261Z,70.7
2017-08-01T05:35:58.792Z,70.6
2017-08-01T05:37:00.390Z,69.9
2017-08-01T05:38:01.949Z,69.7
2017-08-01T05:39:03.427Z,69.5
2017-08-01T05:40:04.968Z,69.1
2017-08-01T05:41:06.478Z,69.6
2017-08-01T05:42:07.979Z,70.4
2017-08-01T05:43:09.510Z,71.0
2017-08-01T05:44:11.045Z,71.2
2017-08-01T05:45:12.539Z,71.2
2017-08-01T05:46:14.045Z,71.2
2017-08-01T05:47:15.578Z,70.8
2017-08-01T05:48:17.201Z,71.1
2017-08-01T05:49:18.721Z,70.3
2017-08-01T05:50:20.204Z,70.9
2017-08-01T05:51:21.694Z,69.3
2017-08-01T05:52:23.182Z,69.9
2017-08-01T05:53:24.670Z,70.7
2017-08-01T05:54:26.173Z,70.4
2017-08-01T05:55:27.643Z,70.3
2017-08-01T05:56:29.113Z,71.0
2017-08-01T05:57:30.657Z,71.4
2017-08-01T05:58:32.136Z,72.0
2017-08-01T05:59:33.628Z,71.3
2017-08-01T06:00:35.128Z,71.5
2017-08-01T06:01:36.653Z,71.9
2017-08-01T06:02:38.163Z,70.9
2017-08-01T06:03:39.747Z,70.8
2017-08-01T06:04:41.355Z,68.8
2017-08-01T06:05:42.871Z,68.6
2017-08-01T06:06:44.377Z,68.8
2017-08-01T06:07:45.909Z,68.9
2017-08-01T06:08:47.472Z,69.2
2017-08-01T06:09:49.040Z,69.2
2017-08-01T06:10:50.552Z,68.8
2017-08-01T06:11:52.046Z,69.0
2017-08-01T06:12:53.571Z,69.0
2017-08-01T06:13:55.089Z,68.8
2017-08-01T06:14:56.661Z,68.6
2017-08-01T06:15:58.195Z,68.8
2017-08-01T06:16:59.717Z,68.8
2017-08-01T06:18:01.232Z,68.5
2017-08-01T06:19:02.752Z,69.0
2017-08-01T06:20:04.260Z,69.6
2017-08-01T06:21:05.770Z,69.7
2017-08-01T06:22:07.291Z,70.9
2017-08-01T06:23:08.853Z,71.2
2017-08-01T06:24:10.472Z,70.2
2017-08-01T06:25:12.100Z,69.4
2017-08-01T06:26:13.770Z,69.8
2017-08-01T06:27:15.356Z,69.3
2017-08-01T06:28:16.925Z,69.8
2017-08-01T06:29:19.499Z,69.7
2017-08-01T06:30:21.068Z,70.3
2017-08-01T06:31:23.554Z,70.1
2017-08-01T06:32:25.080Z,69.7
2017-08-01T06:33:26.607Z,69.8
2017-08-01T06:34:28.249Z,71.3
2017-08-01T06:35:29.829Z,70.7
2017-08-01T06:36:31.315Z,70.3
2017-08-01T06:37:32.835Z,69.7
2017-08-01T06:38:34.383Z,70.9
2017-08-01T06:39:35.988Z,69.6
2017-08-01T06:40:37.615Z,69.8
2017-08-01T06:41:39.136Z,70.7
2017-08-01T06:42:40.787Z,70.2
2017-08-01T06:43:42.374Z,70.5
2017-08-01T06:44:44.022Z,71.0
2017-08-01T06:45:45.645Z,70.0
2017-08-01T06:46:47.233Z,69.4
2017-08-01T06:47:48.837Z,69.4
2017-08-01T06:48:50.382Z,69.7
2017-08-01T06:49:51.981Z,69.2
2017-08-01T06:50:53.563Z,68.8
2017-08-01T06:51:55.124Z,68.8
2017-08-01T06:52:56.715Z,68.3
2017-08-01T06:53:58.274Z,68.0
2017-08-01T06:54:59.862Z,67.7
2017-08-01T06:56:01.379Z,67.9
2017-08-01T06:57:02.966Z,67.8
2017-08-01T06:58:04.565Z,67.6
2017-08-01T06:59:06.136Z,66.3
2017-08-01T07:00:07.740Z,66.2
2017-08-01T07:01:27.941Z,66.7
2017-08-01T07:02:29.333Z,66.4
2017-08-01T07:03:30.736Z,66.5
2017-08-01T07:04:32.129Z,66.3
2017-08-01T07:05:33.609Z,66.8
2017-08-01T07:06:35.015Z,66.2
2017-08-01T07:07:36.407Z,66.5
2017-08-01T07:08:37.809Z,66.3
2017-08-01T07:09:39.222Z,67.3
2017-08-01T07:10:40.730Z,66.4
2017-08-01T07:11:42.105Z,65.5
2017-08-01T07:12:43.500Z,65.9
2017-08-01T07:13:44.956Z,64.4
2017-08-01T07:14:46.382Z,65.0
2017-08-01T07:15:47.870Z,64.4
2017-08-01T07:16:49.262Z,64.3
2017-08-01T07:17:50.659Z,63.9
2017-08-01T07:18:52.109Z,64.0
2017-08-01T07:19:53.515Z,63.4
2017-08-01T07:20:55.020Z,63.5
2017-08-01T07:21:56.434Z,63.0
2017-08-01T07:22:57.851Z,63.2
2017-08-01T07:23:59.234Z,63.2
2017-08-01T07:25:00.634Z,62.6
2017-08-01T07:26:02.097Z,62.6
2017-08-01T07:27:03.522Z,61.7
2017-08-01T07:28:04.928Z,61.2
2017-08-01T07:29:06.339Z,60.7
2017-08-01T07:30:07.787Z,60.3
2017-08-01T07:31:09.271Z,60.0
2017-08-01T07:32:10.706Z,60.7
2017-08-01T07:33:12.108Z,60.6
2017-08-01T07:34:13.510Z,60.7
2017-08-01T07:35:14.919Z,60.8
2017-08-01T07:36:16.420Z,60.7
2017-08-01T07:37:17.860Z,60.9
2017-08-01T07:38:19.268Z,61.0
2017-08-01T07:39:20.686Z,60.2
2017-08-01T07:40:22.091Z,60.9
2017-08-01T07:41:23.492Z,62.6
2017-08-01T07:42:24.893Z,62.0
2017-08-01T07:43:26.290Z,59.7
2017-08-01T07:44:27.698Z,59.7
2017-08-01T07:45:29.094Z,60.0
2017-08-01T07:46:30.497Z,58.4
2017-08-01T07:47:31.901Z,58.4
2017-08-01T07:48:33.310Z,59.3
2017-08-01T07:49:34.750Z,58.2
2017-08-01T07:50:36.163Z,56.3
2017-08-01T07:51:37.559Z,57.8
2017-08-01T07:52:38.962Z,56.2
2017-08-01T07:53:40.391Z,56.6
2017-08-01T07:54:41.815Z,57.1
2017-08-01T07:55:43.234Z,58.0
2017-08-01T07:56:44.656Z,59.3
2017-08-01T07:57:46.049Z,60.0
2017-08-01T07:58:47.454Z,59.3
2017-08-01T07:59:48.855Z,59.4
2017-08-01T08:01:27.953Z,60.1
2017-08-01T08:02:29.351Z,59.1
2017-08-01T08:03:30.767Z,59.0
2017-08-01T08:04:32.158Z,59.4
2017-08-01T08:05:33.573Z,59.3
2017-08-01T08:06:34.982Z,58.9
2017-08-01T08:07:36.371Z,57.8
2017-08-01T08:08:37.777Z,57.4
2017-08-01T08:09:39.178Z,57.4
2017-08-01T08:10:40.576Z,56.5
2017-08-01T08:11:42.059Z,56.3
2017-08-01T08:12:43.453Z,57.1
2017-08-01T08:13:44.922Z,55.7
2017-08-01T08:14:46.314Z,55.5
2017-08-01T08:15:47.722Z,56.6
2017-08-01T08:16:49.139Z,54.8
2017-08-01T08:17:50.552Z,55.5
2017-08-01T08:18:51.950Z,55.2
2017-08-01T08:19:53.345Z,54.1
2017-08-01T08:20:54.748Z,54.0
2017-08-01T08:21:56.170Z,54.4
2017-08-01T08:22:57.560Z,54.8
2017-08-01T08:23:59.967Z,54.7
2017-08-01T08:25:01.370Z,54.3
2017-08-01T08:26:02.775Z,53.3
2017-08-01T08:27:04.171Z,54.4
2017-08-01T08:28:05.585Z,55.0
2017-08-01T08:29:06.992Z,54.5
2017-08-01T08:30:08.404Z,54.4
2017-08-01T08:31:09.796Z,53.7
2017-08-01T08:32:11.225Z,53.9
2017-08-01T08:33:12.648Z,53.8
2017-08-01T08:34:14.058Z,54.7
2017-08-01T08:35:15.511Z,54.5
2017-08-01T08:36:17.011Z,53.8
2017-08-01T08:37:18.457Z,53.0
2017-08-01T08:38:19.885Z,53.7
2017-08-01T08:39:21.367Z,53.9
2017-08-01T08:40:22.822Z,54.6
2017-08-01T08:41:24.254Z,54.0
2017-08-01T08:42:25.676Z,54.7
2017-08-01T08:43:27.177Z,55.2
2017-08-01T08:44:28.601Z,56.2
2017-08-01T08:45:30.029Z,53.7
2017-08-01T08:46:32.450Z,53.8
2017-08-01T08:47:33.854Z,53.6
2017-08-01T08:48:36.267Z,55.2
2017-08-01T08:49:37.660Z,54.8
2017-08-01T08:50:39.089Z,55.1
2017-08-01T08:51:40.510Z,55.5
2017-08-01T08:52:41.935Z,55.6
2017-08-01T08:53:43.326Z,55.9
2017-08-01T08:54:44.736Z,57.7
2017-08-01T08:55:46.124Z,57.2
2017-08-01T08:56:47.590Z,56.0
2017-08-01T08:57:49.018Z,56.3
2017-08-01T08:58:50.438Z,57.1
2017-08-01T08:59:51.828Z,56.1
2017-08-01T09:01:27.998Z,56.9
2017-08-01T09:02:29.425Z,56.2
2017-08-01T09:03:30.841Z,55.1
2017-08-01T09:04:32.233Z,54.4
2017-08-01T09:05:33.711Z,54.5
2017-08-01T09:06:35.113Z,54.3
2017-08-01T09:07:37.560Z,54.1
2017-08-01T09:08:38.964Z,53.6
2017-08-01T09:09:40.379Z,54.2
2017-08-01T09:10:41.791Z,54.1
2017-08-01T09:11:43.207Z,52.8
2017-08-01T09:12:44.614Z,52.9
2017-08-01T09:13:46.072Z,53.7
2017-08-01T09:14:47.478Z,53.9
2017-08-01T09:15:49.887Z,53.0
2017-08-01T09:16:51.324Z,52.0
2017-08-01T09:17:52.722Z,52.4
2017-08-01T09:18:54.125Z,52.2
2017-08-01T09:19:55.554Z,48.9
2017-08-01T09:20:56.948Z,48.4
2017-08-01T09:21:58.394Z,49.3
2017-08-01T09:22:59.796Z,51.3
2017-08-01T09:24:01.238Z,52.4
2017-08-01T09:25:02.659Z,52.9
2017-08-01T09:26:05.069Z,52.1
2017-08-01T09:27:06.480Z,52.8
2017-08-01T09:28:07.898Z,52.3
2017-08-01T09:29:09.343Z,53.5
2017-08-01T09:30:10.769Z,52.8
2017-08-01T09:31:12.175Z,53.4
2017-08-01T09:32:13.593Z,52.6
2017-08-01T09:33:15.016Z,53.7
2017-08-01T09:34:16.448Z,52.7
2017-08-01T09:35:17.887Z,52.3
2017-08-01T09:36:19.315Z,52.7
2017-08-01T09:37:20.720Z,52.2
2017-08-01T09:38:22.160Z,53.8
2017-08-01T09:39:23.582Z,53.2
2017-08-01T09:40:24.988Z,51.8
2017-08-01T09:41:26.415Z,51.1
2017-08-01T09:42:27.845Z,50.1
2017-08-01T09:43:29.253Z,50.9
2017-08-01T09:44:30.671Z,50.6
2017-08-01T09:45:32.082Z,49.7
2017-08-01T09:46:33.503Z,49.2
2017-08-01T09:47:34.903Z,49.7
2017-08-01T09:48:36.313Z,49.6
2017-08-01T09:49:37.740Z,50.3
2017-08-01T09:50:39.167Z,49.7
2017-08-01T09:51:40.567Z,49.8
2017-08-01T09:52:42.975Z,50.0
2017-08-01T09:53:44.376Z,48.5
2017-08-01T09:54:45.787Z,49.5
2017-08-01T09:55:47.285Z,50.5
2017-08-01T09:56:48.693Z,50.8
2017-08-01T09:57:50.095Z,50.4
2017-08-01T09:58:51.516Z,50.6
2017-08-01T09:59:52.922Z,49.8
2017-08-01T10:01:28.033Z,49.5
2017-08-01T10:02:29.431Z,50.2
2017-08-01T10:03:30.849Z,50.0
2017-08-01T10:04:32.317Z,50.1
2017-08-01T10:05:33.732Z,50.6
2017-08-01T10:06:35.139Z,51.9
2017-08-01T10:07:36.553Z,53.0
2017-08-01T10:08:37.987Z,53.5
2017-08-01T10:09:39.398Z,52.8
2017-08-01T10:10:40.801Z,52.2
2017-08-01T10:11:42.232Z,51.6
2017-08-01T10:12:43.629Z,52.2
2017-08-01T10:13:45.042Z,52.2
2017-08-01T10:14:46.488Z,51.8
2017-08-01T10:15:47.876Z,51.9
2017-08-01T10:16:49.279Z,51.1
2017-08-01T10:17:50.705Z,52.1
2017-08-01T10:18:52.123Z,49.7
2017-08-01T10:19:53.567Z,48.6
2017-08-01T10:20:54.965Z,48.9
2017-08-01T10:21:56.378Z,49.5
2017-08-01T10:22:57.784Z,48.8
2017-08-01T10:23:59.187Z,49.6
2017-08-01T10:25:00.588Z,48.2
2017-08-01T10:26:01.996Z,48.3
2017-08-01T10:27:03.416Z,48.8
2017-08-01T10:28:04.814Z,49.2
2017-08-01T10:29:06.245Z,49.6
2017-08-01T10:30:07.652Z,48.6
2017-08-01T10:31:09.051Z,48.4
2017-08-01T10:32:11.546Z,47.8
2017-08-01T10:33:12.928Z,48.0
2017-08-01T10:34:14.341Z,48.2
2017-08-01T10:35:15.738Z,49.0
2017-08-01T10:36:17.158Z,48.7
2017-08-01T10:37:18.582Z,48.3
2017-08-01T10:38:19.978Z,48.3
2017-08-01T10:39:21.390Z,47.7
2017-08-01T10:40:22.807Z,48.0
2017-08-01T10:41:24.217Z,46.1
2017-08-01T10:42:25.617Z,44.5
2017-08-01T10:43:27.072Z,44.6
2017-08-01T10:44:28.476Z,45.1
2017-08-01T10:45:29.927Z,43.6
2017-08-01T10:46:31.354Z,43.6
2017-08-01T10:47:32.922Z,43.5
2017-08-01T10:48:34.377Z,44.0
2017-08-01T10:49:35.807Z,44.0
2017-08-01T10:50:37.246Z,44.2
2017-08-01T10:51:38.673Z,44.3
2017-08-01T10:52:40.104Z,44.7
2017-08-01T10:53:41.513Z,43.8
2017-08-01T10:54:42.933Z,43.8
2017-08-01T10:55:44.511Z,43.1
2017-08-01T10:56:45.927Z,42.9
2017-08-01T10:57:47.387Z,43.1
2017-08-01T10:58:48.804Z,43.1
2017-08-01T10:59:50.226Z,42.8
2017-08-01T11:00:51.674Z,43.3
2017-08-01T11:01:53.102Z,42.1
2017-08-01T11:02:54.511Z,42.0
2017-08-01T11:03:55.926Z,43.3
2017-08-01T11:04:57.343Z,43.6
2017-08-01T11:05:58.757Z,43.3
2017-08-01T11:07:00.166Z,43.9
2017-08-01T11:08:01.592Z,45.6
2017-08-01T11:09:03.015Z,44.4
2017-08-01T11:10:04.417Z,42.7
2017-08-01T11:11:05.881Z,41.4
2017-08-01T11:12:07.311Z,42.7
2017-08-01T11:13:08.728Z,40.8
2017-08-01T11:14:10.133Z,38.6
2017-08-01T11:15:11.551Z,39.0
2017-08-01T11:16:13.048Z,39.4
2017-08-01T11:17:14.459Z,39.2
2017-08-01T11:18:15.977Z,39.5
2017-08-01T11:19:17.388Z,39.3
2017-08-01T11:20:18.792Z,38.1
2017-08-01T11:21:20.212Z,38.8
2017-08-01T11:22:21.621Z,38.6
2017-08-01T11:23:23.048Z,38.2
2017-08-01T11:24:24.474Z,39.1
2017-08-01T11:25:25.893Z,39.7
2017-08-01T11:26:27.407Z,40.2
2017-08-01T11:27:28.816Z,41.0
2017-08-01T11:28:30.227Z,41.1
2017-08-01T11:29:31.643Z,41.4
2017-08-01T11:30:33.107Z,41.2
2017-08-01T11:31:34.532Z,41.0
2017-08-01T11:32:35.947Z,39.8
2017-08-01T11:33:37.363Z,40.5
2017-08-01T11:34:38.771Z,39.8
2017-08-01T11:35:40.191Z,39.5
2017-08-01T11:36:41.683Z,39.3
2017-08-01T11:37:43.093Z,39.3
2017-08-01T11:38:44.511Z,39.3
2017-08-01T11:39:45.921Z,39.7
2017-08-01T11:40:47.327Z,40.3
2017-08-01T11:41:48.755Z,41.2
2017-08-01T11:42:50.161Z,39.2
2017-08-01T11:43:51.573Z,39.6
2017-08-01T11:44:52.983Z,38.3
2017-08-01T11:45:54.403Z,38.8
2017-08-01T11:46:55.797Z,40.5
2017-08-01T11:47:57.238Z,40.0
2017-08-01T11:48:58.654Z,40.2
2017-08-01T11:50:00.099Z,39.5
2017-08-01T11:51:01.528Z,38.9
2017-08-01T11:52:02.964Z,38.5
2017-08-01T11:53:04.372Z,38.5
2017-08-01T11:54:05.787Z,39.5
2017-08-01T11:55:07.198Z,39.8
2017-08-01T11:56:08.615Z,40.5
2017-08-01T11:57:10.024Z,39.8
2017-08-01T11:58:11.449Z,41.1
2017-08-01T11:59:12.866Z,39.1
2017-08-01T12:00:14.279Z,39.4
2017-08-01T12:01:15.709Z,38.7
2017-08-01T12:02:17.185Z,38.3
2017-08-01T12:03:18.601Z,37.8
2017-08-01T12:04:20.022Z,37.0
2017-08-01T12:05:21.433Z,37.9
2017-08-01T12:06:22.849Z,37.7
2017-08-01T12:07:24.265Z,38.2
2017-08-01T12:08:25.698Z,38.0
2017-08-01T12:09:28.144Z,36.7
2017-08-01T12:10:29.544Z,37.7
2017-08-01T12:11:31.015Z,37.0
2017-08-01T12:12:32.423Z,36.3
2017-08-01T12:13:33.849Z,36.7
2017-08-01T12:14:35.258Z,37.1
2017-08-01T12:15:36.670Z,36.9
2017-08-01T12:16:38.081Z,37.8
2017-08-01T12:17:39.510Z,38.0
2017-08-01T12:18:40.932Z,36.7
2017-08-01T12:19:42.364Z,36.5
2017-08-01T12:20:43.784Z,36.5
2017-08-01T12:21:45.216Z,36.6
2017-08-01T12:22:46.633Z,36.4
2017-08-01T12:23:48.065Z,36.8
2017-08-01T12:24:49.473Z,36.2
2017-08-01T12:25:50.942Z,35.7
2017-08-01T12:26:52.381Z,34.6
2017-08-01T12:27:53.806Z,35.2
2017-08-01T12:28:55.248Z,37.3
2017-08-01T12:29:56.739Z,38.0
2017-08-01T12:30:58.155Z,38.6
2017-08-01T12:31:59.623Z,39.1
2017-08-01T12:33:01.037Z,37.0
2017-08-01T12:34:02.473Z,36.6
2017-08-01T12:35:03.905Z,37.5
2017-08-01T12:36:05.335Z,36.1
2017-08-01T12:37:06.783Z,36.5
2017-08-01T12:38:08.216Z,36.2
2017-08-01T12:39:09.654Z,36.5
2017-08-01T12:40:11.167Z,36.3
2017-08-01T12:41:12.812Z,37.5
2017-08-01T12:42:14.383Z,37.1
2017-08-01T12:43:15.907Z,38.3
2017-08-01T12:44:17.576Z,37.4
2017-08-01T12:45:19.206Z,37.9
2017-08-01T12:46:20.861Z,39.1
2017-08-01T12:47:22.402Z,37.7
2017-08-01T12:48:23.970Z,37.6
2017-08-01T12:49:25.533Z,37.4
2017-08-01T12:50:27.066Z,37.3
2017-08-01T12:51:28.762Z,38.2
2017-08-01T12:52:30.322Z,37.6
2017-08-01T12:53:31.904Z,38.1
2017-08-01T12:54:33.470Z,39.2
2017-08-01T12:55:34.989Z,39.4
2017-08-01T12:56:36.545Z,38.9
2017-08-01T12:57:37.984Z,40.9
2017-08-01T12:58:39.695Z,40.9
2017-08-01T12:59:41.343Z,41.1
2017-08-01T13:00:42.865Z,41.0
2017-08-01T13:01:44.390Z,41.7
2017-08-01T13:02:45.979Z,41.8
2017-08-01T13:03:47.820Z,41.8
2017-08-01T13:04:50.312Z,41.9
2017-08-01T13:05:51.874Z,42.5
2017-08-01T13:06:53.517Z,42.3
2017-08-01T13:07:55.064Z,42.6
2017-08-01T13:08:56.644Z,43.0
2017-08-01T13:09:58.184Z,43.6
2017-08-01T13:10:59.668Z,43.7
2017-08-01T13:12:01.165Z,43.8
2017-08-01T13:13:02.898Z,44.5
2017-08-01T13:14:04.765Z,44.5
2017-08-01T13:15:06.346Z,45.5
2017-08-01T13:16:07.881Z,43.9
2017-08-01T13:17:09.460Z,44.1
2017-08-01T13:18:11.068Z,43.9
2017-08-01T13:19:12.685Z,44.4
2017-08-01T13:20:14.292Z,44.4
2017-08-01T13:21:15.909Z,44.1
2017-08-01T13:22:17.466Z,44.8
2017-08-01T13:23:19.008Z,44.0
2017-08-01T13:24:20.560Z,44.5
2017-08-01T13:25:22.104Z,44.9
2017-08-01T13:26:23.634Z,43.6
2017-08-01T13:27:25.262Z,43.1
2017-08-01T13:28:27.043Z,43.8
2017-08-01T13:29:29.602Z,42.3
2017-08-01T13:30:31.296Z,42.2
2017-08-01T13:31:32.849Z,44.0
2017-08-01T13:32:34.475Z,46.1
2017-08-01T13:33:36.061Z,47.6
2017-08-01T13:34:37.621Z,49.6
2017-08-01T13:35:39.135Z,50.6
2017-08-01T13:36:40.770Z,50.8
2017-08-01T13:37:42.356Z,50.9
2017-08-01T13:38:43.936Z,50.8
2017-08-01T13:39:45.542Z,51.1